createdAt,value
2022-07-31T00:00:55.153Z,1.48
2022-07-31T00:05:56.823Z,1.77
2022-07-31T00:10:58.556Z,1.70
2022-07-31T00:16:00.142Z,1.77
2022-07-31T00:21:02.601Z,1.52
2022-07-31T00:26:04.157Z,1.75
2022-07-31T00:31:05.712Z,1.83
2022-07-31T00:36:07.471Z,1.70
2022-07-31T00:41:09.366Z,1.63
2022-07-31T00:46:14.549Z,1.80
2022-07-31T00:51:16.576Z,1.80
2022-07-31T00:56:18.194Z,2.20
2022-07-31T01:01:20.390Z,2.03
2022-07-31T01:06:22.246Z,2.00
2022-07-31T01:11:50.892Z,1.70
2022-07-31T01:16:54.474Z,1.87
2022-07-31T01:22:01.793Z,2.20
2022-07-31T01:27:11.369Z,2.10
2022-07-31T01:32:13.963Z,1.87
2022-07-31T01:37:42.529Z,1.90
2022-07-31T01:42:49.728Z,1.77
2022-07-31T01:47:52.579Z,1.90
2022-07-31T01:52:58.144Z,1.77
2022-07-31T01:58:01.201Z,1.60
2022-07-31T02:03:09.953Z,1.73
2022-07-31T02:08:15.319Z,1.90
2022-07-31T02:13:19.523Z,1.70
2022-07-31T02:18:22.448Z,2.13
2022-07-31T02:23:38.323Z,1.80
2022-07-31T02:28:42.289Z,1.60
2022-07-31T02:33:46.815Z,1.87
2022-07-31T02:38:50.776Z,1.80
2022-07-31T02:43:52.660Z,1.80
2022-07-31T02:48:57.140Z,1.70
2022-07-31T02:53:58.711Z,1.70
2022-07-31T02:59:04.094Z,1.60
2022-07-31T03:04:19.105Z,2.00
2022-07-31T03:09:20.674Z,1.83
2022-07-31T03:14:25.794Z,1.80
2022-07-31T03:19:34.728Z,1.60
2022-07-31T03:24:36.505Z,1.80
2022-07-31T03:29:43.687Z,1.90
2022-07-31T03:34:46.814Z,1.77
2022-07-31T03:39:48.805Z,1.70
2022-07-31T03:44:50.412Z,1.70
2022-07-31T03:49:54.099Z,1.90
2022-07-31T03:54:55.832Z,1.63
2022-07-31T03:59:58.115Z,1.80
2022-07-31T04:05:01.573Z,1.70
2022-07-31T04:10:03.465Z,1.73
2022-07-31T04:15:06.309Z,1.97
2022-07-31T04:20:08.551Z,2.00
2022-07-31T04:25:10.240Z,1.80
2022-07-31T04:30:24.669Z,2.00
2022-07-31T04:35:27.819Z,1.90
2022-07-31T04:40:29.501Z,1.73
2022-07-31T04:45:31.641Z,1.77
2022-07-31T04:50:33.259Z,2.00
2022-07-31T04:55:35.042Z,1.87
2022-07-31T05:00:36.595Z,2.03
2022-07-31T05:05:39.101Z,1.87
2022-07-31T05:10:59.327Z,1.50
2022-07-31T05:16:02.127Z,1.80
2022-07-31T05:21:04.139Z,1.60
2022-07-31T05:26:27.385Z,1.60
2022-07-31T05:31:29.029Z,1.80
2022-07-31T05:36:30.769Z,1.90
2022-07-31T05:41:34.010Z,1.73
2022-07-31T05:51:55.125Z,1.70
2022-07-31T05:56:56.766Z,1.80
2022-07-31T06:02:06.585Z,2.47
2022-07-31T06:07:25.467Z,1.70
2022-07-31T06:12:27.548Z,1.90
2022-07-31T06:17:44.225Z,1.80
2022-07-31T06:23:19.966Z,1.90
2022-07-31T06:28:46.463Z,1.77
2022-07-31T06:33:51.398Z,1.45
2022-07-31T06:38:58.004Z,1.90
2022-07-31T06:44:02.413Z,1.63
2022-07-31T06:49:22.637Z,1.80
2022-07-31T06:54:26.786Z,1.70
2022-07-31T06:59:40.463Z,1.80
2022-07-31T07:05:04.900Z,2.17
2022-07-31T07:10:05.917Z,2.10
2022-07-31T07:15:27.712Z,1.83
2022-07-31T07:20:29.281Z,1.90
2022-07-31T07:25:31.284Z,1.80
2022-07-31T07:30:35.162Z,1.90
2022-07-31T07:35:39.475Z,2.00
2022-07-31T07:40:47.208Z,1.80
2022-07-31T07:45:48.809Z,2.20
2022-07-31T07:50:50.721Z,1.77
2022-07-31T07:56:10.834Z,1.70
2022-07-31T08:01:31.034Z,1.92
2022-07-31T08:06:45.109Z,1.95
2022-07-31T08:11:46.700Z,1.85
2022-07-31T08:16:56.668Z,1.85
2022-07-31T08:21:59.037Z,1.80
2022-07-31T08:27:21.609Z,2.10
2022-07-31T08:32:25.742Z,2.00
2022-07-31T08:38:01.170Z,2.10
2022-07-31T08:43:31.072Z,2.17
2022-07-31T08:48:31.784Z,2.05
2022-07-31T08:53:36.563Z,1.80
2022-07-31T08:58:42.563Z,1.60
2022-07-31T09:03:44.544Z,1.45
2022-07-31T09:08:48.383Z,2.03
2022-07-31T09:14:02.189Z,1.58
2022-07-31T09:19:51.674Z,1.60
2022-07-31T09:25:15.944Z,1.42
2022-07-31T09:30:18.329Z,1.40
2022-07-31T09:35:38.010Z,1.60
2022-07-31T09:40:57.517Z,1.25
2022-07-31T09:46:18.198Z,1.33
2022-07-31T09:51:19.884Z,1.33
2022-07-31T09:56:34.437Z,1.25
2022-07-31T10:01:37.532Z,1.45
2022-07-31T10:06:40.047Z,1.58
2022-07-31T10:11:42.911Z,1.48
2022-07-31T10:16:48.890Z,1.10
2022-07-31T10:22:18.350Z,1.08
2022-07-31T10:27:23.341Z,1.30
2022-07-31T10:32:33.024Z,1.35
2022-07-31T10:38:11.332Z,0.88
2022-07-31T10:43:46.212Z,0.93
2022-07-31T10:49:00.115Z,0.70
2022-07-31T10:54:21.851Z,0.80
2022-07-31T10:59:45.184Z,1.00
2022-07-31T11:05:27.773Z,0.75
2022-07-31T11:10:55.544Z,0.90
2022-07-31T11:16:19.565Z,0.70
2022-07-31T11:21:49.365Z,0.93
2022-07-31T11:26:58.290Z,0.85
2022-07-31T11:32:07.180Z,0.93
2022-07-31T11:37:09.285Z,0.80
2022-07-31T11:42:11.292Z,0.73
2022-07-31T11:48:10.274Z,0.60
2022-07-31T11:52:37.252Z,0.90
2022-07-31T11:57:52.557Z,0.88
2022-07-31T12:02:54.636Z,0.70
2022-07-31T12:07:56.355Z,0.95
2022-07-31T12:12:57.985Z,0.90
2022-07-31T12:18:05.061Z,0.82
2022-07-31T12:23:06.731Z,0.75
2022-07-31T12:28:09.321Z,1.00
2022-07-31T12:33:12.221Z,0.90
2022-07-31T12:38:38.294Z,0.90
2022-07-31T12:43:51.135Z,1.00
2022-07-31T12:48:53.649Z,1.27
2022-07-31T12:53:55.171Z,0.93
2022-07-31T12:58:56.785Z,1.00
2022-07-31T13:03:58.735Z,1.00
2022-07-31T13:09:01.216Z,1.05
2022-07-31T13:14:03.045Z,1.30
2022-07-31T13:19:05.386Z,1.38
2022-07-31T13:24:09.116Z,1.20
2022-07-31T13:29:12.992Z,1.40
2022-07-31T13:34:14.586Z,1.30
2022-07-31T13:39:18.537Z,1.13
2022-07-31T13:44:20.145Z,1.33
2022-07-31T13:49:21.854Z,1.10
2022-07-31T13:54:23.472Z,1.23
2022-07-31T13:59:25.134Z,1.38
2022-07-31T14:04:30.902Z,1.20
2022-07-31T14:09:34.829Z,0.90
2022-07-31T14:14:36.330Z,1.10
2022-07-31T14:19:43.838Z,1.40
2022-07-31T14:24:50.703Z,1.50
2022-07-31T14:29:53.117Z,1.40
2022-07-31T14:34:54.753Z,1.30
2022-07-31T14:39:56.341Z,1.40
2022-07-31T14:44:58.901Z,1.40
2022-07-31T14:50:07.265Z,1.48
2022-07-31T14:55:11.683Z,1.33
2022-07-31T15:00:13.940Z,1.45
2022-07-31T15:06:41.931Z,1.52
2022-07-31T15:10:37.275Z,1.13
2022-07-31T15:15:39.268Z,1.60
2022-07-31T15:20:41.042Z,1.80
2022-07-31T15:25:42.656Z,1.45
2022-07-31T15:30:44.670Z,1.52
2022-07-31T15:35:47.563Z,1.50
2022-07-31T15:40:50.175Z,1.30
2022-07-31T15:45:51.696Z,1.20
2022-07-31T15:50:53.336Z,1.40
2022-07-31T15:55:56.385Z,1.30
2022-07-31T16:00:58.103Z,1.38
2022-07-31T16:06:00.859Z,1.30
2022-07-31T16:11:02.892Z,1.20
2022-07-31T16:16:04.893Z,1.20
2022-07-31T16:21:06.686Z,1.40
2022-07-31T16:26:08.557Z,1.23
2022-07-31T16:31:10.712Z,1.55
2022-07-31T16:36:32.023Z,1.52
2022-07-31T16:41:33.615Z,1.80
2022-07-31T16:46:35.218Z,1.27
2022-07-31T16:51:36.888Z,1.40
2022-07-31T16:56:38.578Z,1.50
2022-07-31T17:01:58.952Z,1.13
2022-07-31T17:07:02.167Z,1.70
2022-07-31T17:12:04.553Z,1.92
2022-07-31T17:17:06.880Z,1.80
2022-07-31T17:22:11.025Z,1.52
2022-07-31T17:27:13.117Z,1.50
2022-07-31T17:32:14.823Z,1.60
2022-07-31T17:37:19.609Z,1.90
2022-07-31T17:42:23.706Z,1.50
2022-07-31T17:47:26.742Z,1.65
2022-07-31T17:52:28.456Z,1.50
2022-07-31T17:57:30.529Z,1.48
2022-07-31T18:02:33.196Z,1.70
2022-07-31T18:07:36.403Z,1.63
2022-07-31T18:12:57.735Z,1.70
2022-07-31T18:17:59.823Z,1.70
2022-07-31T18:23:01.612Z,1.63
2022-07-31T18:28:03.607Z,1.63
2022-07-31T18:33:05.264Z,1.73
2022-07-31T18:38:06.991Z,1.60
2022-07-31T18:43:09.124Z,1.30
2022-07-31T18:48:10.816Z,1.30
2022-07-31T18:53:13.051Z,1.42
2022-07-31T18:58:14.876Z,1.10
2022-07-31T19:03:18.468Z,1.25
2022-07-31T19:08:20.499Z,1.30
2022-07-31T19:13:22.897Z,1.10
2022-07-31T19:18:28.851Z,1.27
2022-07-31T19:23:30.640Z,1.02
2022-07-31T19:28:32.807Z,1.20
2022-07-31T19:33:34.457Z,1.15
2022-07-31T19:38:36.715Z,0.95
2022-07-31T19:43:38.276Z,1.30
2022-07-31T19:48:44.884Z,1.33
2022-07-31T19:53:46.557Z,1.23
2022-07-31T19:58:49.189Z,0.95
2022-07-31T20:03:53.021Z,1.05
2022-07-31T20:08:54.813Z,1.20
2022-07-31T20:13:56.389Z,1.13
2022-07-31T20:18:57.988Z,1.23
2022-07-31T20:24:01.348Z,0.70
2022-07-31T20:29:04.103Z,0.80
2022-07-31T20:34:05.698Z,1.17
2022-07-31T20:39:07.232Z,1.13
2022-07-31T20:44:09.900Z,0.80
2022-07-31T20:49:19.732Z,0.80
2022-07-31T20:54:34.332Z,1.00
2022-07-31T20:59:36.480Z,1.00
2022-07-31T21:04:38.076Z,0.80
2022-07-31T21:09:41.009Z,1.05
2022-07-31T21:14:42.606Z,0.80
2022-07-31T21:19:44.209Z,0.95
2022-07-31T21:24:46.138Z,0.85
2022-07-31T21:29:48.134Z,0.70
2022-07-31T21:34:50.167Z,0.82
2022-07-31T21:39:52.125Z,0.80
2022-07-31T21:44:54.022Z,0.95
2022-07-31T21:49:58.554Z,0.90
2022-07-31T21:55:05.288Z,1.15
2022-07-31T22:00:13.402Z,1.00
2022-07-31T22:05:34.023Z,1.00
2022-07-31T22:10:36.089Z,1.20
2022-07-31T22:15:51.319Z,1.00
2022-07-31T22:21:00.022Z,0.93
2022-07-31T22:26:02.166Z,1.10
2022-07-31T22:31:04.110Z,1.40
2022-07-31T22:36:07.111Z,1.60
2022-07-31T22:41:09.133Z,1.48
2022-07-31T22:46:13.522Z,1.40
2022-07-31T22:51:15.764Z,1.63
2022-07-31T22:56:17.828Z,1.52
2022-07-31T23:01:19.350Z,1.50
2022-07-31T23:06:32.274Z,0.95
2022-07-31T23:11:34.088Z,0.90
2022-07-31T23:16:35.583Z,0.90
2022-07-31T23:21:37.358Z,0.65
2022-07-31T23:26:38.975Z,0.90
2022-07-31T23:31:40.577Z,1.05
2022-07-31T23:36:45.302Z,1.20
2022-07-31T23:42:05.553Z,1.02
2022-07-31T23:47:07.473Z,0.90
2022-07-31T23:52:10.397Z,1.08
2022-07-31T23:57:11.876Z,1.30
